sensor_id;sensor_type;location;lat;lon;timestamp;P1;durP1;ratioP1;P2;durP2;ratioP2
12869;SDS011;6503;48.572;13.460;2023-04-25T00:00:39;2.33;;;2.10;;
12869;SDS011;6503;48.572;13.460;2023-04-25T00:03:07;2.72;;;2.30;;
12869;SDS011;6503;48.572;13.460;2023-04-25T00:05:36;3.00;;;2.20;;
12869;SDS011;6503;48.572;13.460;2023-04-25T00:08:05;5.20;;;2.45;;
12869;SDS011;6503;48.572;13.460;2023-04-25T00:10:35;3.75;;;2.35;;
12869;SDS011;6503;48.572;13.460;2023-04-25T00:13:02;3.72;;;2.67;;
12869;SDS011;6503;48.572;13.460;2023-04-25T00:15:30;5.03;;;3.00;;
12869;SDS011;6503;48.572;13.460;2023-04-25T00:17:57;5.78;;;2.90;;
12869;SDS011;6503;48.572;13.460;2023-04-25T00:20:25;3.17;;;2.72;;
12869;SDS011;6503;48.572;13.460;2023-04-25T00:22:56;4.70;;;2.90;;
12869;SDS011;6503;48.572;13.460;2023-04-25T00:25:23;4.15;;;2.67;;
12869;SDS011;6503;48.572;13.460;2023-04-25T00:27:51;4.43;;;2.40;;
12869;SDS011;6503;48.572;13.460;2023-04-25T00:30:18;5.57;;;3.08;;
12869;SDS011;6503;48.572;13.460;2023-04-25T00:32:49;5.10;;;2.45;;
12869;SDS011;6503;48.572;13.460;2023-04-25T00:35:16;4.38;;;2.50;;
12869;SDS011;6503;48.572;13.460;2023-04-25T00:37:44;4.03;;;2.42;;
12869;SDS011;6503;48.572;13.460;2023-04-25T00:40:14;3.30;;;2.35;;
12869;SDS011;6503;48.572;13.460;2023-04-25T00:42:42;3.90;;;2.88;;
12869;SDS011;6503;48.572;13.460;2023-04-25T00:45:10;4.85;;;2.65;;
12869;SDS011;6503;48.572;13.460;2023-04-25T00:47:39;3.08;;;2.60;;
12869;SDS011;6503;48.572;13.460;2023-04-25T00:50:07;4.30;;;2.80;;
12869;SDS011;6503;48.572;13.460;2023-04-25T00:52:36;4.20;;;2.97;;
12869;SDS011;6503;48.572;13.460;2023-04-25T00:55:04;4.50;;;2.70;;
12869;SDS011;6503;48.572;13.460;2023-04-25T00:57:34;4.88;;;3.03;;
12869;SDS011;6503;48.572;13.460;2023-04-25T01:00:02;5.00;;;2.85;;
12869;SDS011;6503;48.572;13.460;2023-04-25T01:02:31;4.45;;;2.78;;
12869;SDS011;6503;48.572;13.460;2023-04-25T01:04:59;5.00;;;3.28;;
12869;SDS011;6503;48.572;13.460;2023-04-25T01:07:27;4.85;;;3.50;;
12869;SDS011;6503;48.572;13.460;2023-04-25T01:09:57;5.18;;;3.33;;
12869;SDS011;6503;48.572;13.460;2023-04-25T01:12:25;5.33;;;3.40;;
12869;SDS011;6503;48.572;13.460;2023-04-25T01:14:54;4.75;;;3.63;;
12869;SDS011;6503;48.572;13.460;2023-04-25T01:17:22;5.20;;;3.28;;
12869;SDS011;6503;48.572;13.460;2023-04-25T01:22:21;3.88;;;3.13;;
12869;SDS011;6503;48.572;13.460;2023-04-25T01:24:49;3.10;;;2.78;;
12869;SDS011;6503;48.572;13.460;2023-04-25T01:29:45;4.55;;;3.45;;
12869;SDS011;6503;48.572;13.460;2023-04-25T01:32:13;5.53;;;3.63;;
12869;SDS011;6503;48.572;13.460;2023-04-25T01:34:41;5.47;;;3.65;;
12869;SDS011;6503;48.572;13.460;2023-04-25T01:37:09;5.32;;;3.50;;
12869;SDS011;6503;48.572;13.460;2023-04-25T01:39:37;4.68;;;3.58;;
12869;SDS011;6503;48.572;13.460;2023-04-25T01:42:05;4.35;;;3.13;;
12869;SDS011;6503;48.572;13.460;2023-04-25T01:44:32;6.00;;;3.20;;
12869;SDS011;6503;48.572;13.460;2023-04-25T01:47:00;3.33;;;2.80;;
12869;SDS011;6503;48.572;13.460;2023-04-25T01:49:27;4.13;;;3.00;;
12869;SDS011;6503;48.572;13.460;2023-04-25T01:51:54;3.85;;;2.60;;
12869;SDS011;6503;48.572;13.460;2023-04-25T01:54:22;4.00;;;2.85;;
12869;SDS011;6503;48.572;13.460;2023-04-25T01:56:51;4.78;;;3.17;;
12869;SDS011;6503;48.572;13.460;2023-04-25T01:59:18;5.80;;;3.80;;
12869;SDS011;6503;48.572;13.460;2023-04-25T02:01:46;4.10;;;3.25;;
12869;SDS011;6503;48.572;13.460;2023-04-25T02:04:14;4.55;;;3.20;;
12869;SDS011;6503;48.572;13.460;2023-04-25T02:06:41;5.47;;;3.75;;
12869;SDS011;6503;48.572;13.460;2023-04-25T02:09:09;3.97;;;2.97;;
12869;SDS011;6503;48.572;13.460;2023-04-25T02:11:36;6.53;;;3.28;;
12869;SDS011;6503;48.572;13.460;2023-04-25T02:14:05;3.28;;;2.95;;
12869;SDS011;6503;48.572;13.460;2023-04-25T02:16:33;5.30;;;2.80;;
12869;SDS011;6503;48.572;13.460;2023-04-25T02:19:00;4.53;;;3.20;;
12869;SDS011;6503;48.572;13.460;2023-04-25T02:21:28;3.90;;;2.70;;
12869;SDS011;6503;48.572;13.460;2023-04-25T02:23:55;5.07;;;3.05;;
12869;SDS011;6503;48.572;13.460;2023-04-25T02:26:23;6.10;;;3.10;;
12869;SDS011;6503;48.572;13.460;2023-04-25T02:28:50;4.90;;;3.38;;
12869;SDS011;6503;48.572;13.460;2023-04-25T02:31:20;4.95;;;3.30;;
12869;SDS011;6503;48.572;13.460;2023-04-25T02:33:47;5.05;;;3.63;;
12869;SDS011;6503;48.572;13.460;2023-04-25T02:36:15;7.57;;;3.38;;
12869;SDS011;6503;48.572;13.460;2023-04-25T02:38:42;4.32;;;3.08;;
12869;SDS011;6503;48.572;13.460;2023-04-25T02:41:10;6.13;;;3.80;;
12869;SDS011;6503;48.572;13.460;2023-04-25T02:43:37;4.18;;;3.10;;
12869;SDS011;6503;48.572;13.460;2023-04-25T02:46:04;5.05;;;3.45;;
12869;SDS011;6503;48.572;13.460;2023-04-25T02:48:34;4.60;;;3.22;;
12869;SDS011;6503;48.572;13.460;2023-04-25T02:51:02;4.97;;;3.47;;
12869;SDS011;6503;48.572;13.460;2023-04-25T02:53:30;6.43;;;3.90;;
12869;SDS011;6503;48.572;13.460;2023-04-25T02:55:57;9.32;;;3.78;;
12869;SDS011;6503;48.572;13.460;2023-04-25T02:58:25;6.00;;;3.70;;
12869;SDS011;6503;48.572;13.460;2023-04-25T03:00:52;4.75;;;3.47;;
12869;SDS011;6503;48.572;13.460;2023-04-25T03:03:20;6.43;;;3.67;;
12869;SDS011;6503;48.572;13.460;2023-04-25T03:05:50;5.47;;;4.07;;
12869;SDS011;6503;48.572;13.460;2023-04-25T03:08:18;4.57;;;3.70;;
12869;SDS011;6503;48.572;13.460;2023-04-25T03:10:46;6.80;;;3.38;;
12869;SDS011;6503;48.572;13.460;2023-04-25T03:13:15;3.80;;;2.88;;
12869;SDS011;6503;48.572;13.460;2023-04-25T03:15:43;7.00;;;3.40;;
12869;SDS011;6503;48.572;13.460;2023-04-25T03:18:10;5.15;;;3.30;;
12869;SDS011;6503;48.572;13.460;2023-04-25T03:20:37;4.95;;;3.58;;
12869;SDS011;6503;48.572;13.460;2023-04-25T03:23:08;7.53;;;3.90;;
12869;SDS011;6503;48.572;13.460;2023-04-25T03:25:36;5.10;;;3.92;;
12869;SDS011;6503;48.572;13.460;2023-04-25T03:28:03;5.45;;;3.70;;
12869;SDS011;6503;48.572;13.460;2023-04-25T03:30:30;5.78;;;3.30;;
12869;SDS011;6503;48.572;13.460;2023-04-25T03:32:58;5.10;;;4.22;;
12869;SDS011;6503;48.572;13.460;2023-04-25T03:35:26;8.70;;;3.42;;
12869;SDS011;6503;48.572;13.460;2023-04-25T03:37:53;4.15;;;3.67;;
12869;SDS011;6503;48.572;13.460;2023-04-25T03:40:23;5.32;;;3.83;;
12869;SDS011;6503;48.572;13.460;2023-04-25T03:42:50;6.47;;;4.43;;
12869;SDS011;6503;48.572;13.460;2023-04-25T03:45:19;4.95;;;3.40;;
12869;SDS011;6503;48.572;13.460;2023-04-25T03:47:46;6.88;;;3.72;;
12869;SDS011;6503;48.572;13.460;2023-04-25T03:50:21;6.25;;;4.15;;
12869;SDS011;6503;48.572;13.460;2023-04-25T03:52:51;6.38;;;3.78;;
12869;SDS011;6503;48.572;13.460;2023-04-25T03:55:18;7.15;;;4.43;;
12869;SDS011;6503;48.572;13.460;2023-04-25T03:57:48;6.75;;;4.43;;
12869;SDS011;6503;48.572;13.460;2023-04-25T04:00:15;7.10;;;4.43;;
12869;SDS011;6503;48.572;13.460;2023-04-25T04:02:43;5.93;;;4.38;;
12869;SDS011;6503;48.572;13.460;2023-04-25T04:05:10;6.03;;;4.13;;
12869;SDS011;6503;48.572;13.460;2023-04-25T04:07:38;6.00;;;4.47;;
12869;SDS011;6503;48.572;13.460;2023-04-25T04:10:08;8.60;;;4.33;;
12869;SDS011;6503;48.572;13.460;2023-04-25T04:15:07;8.68;;;4.22;;
12869;SDS011;6503;48.572;13.460;2023-04-25T04:17:34;4.18;;;3.45;;
12869;SDS011;6503;48.572;13.460;2023-04-25T04:20:02;4.05;;;3.50;;
12869;SDS011;6503;48.572;13.460;2023-04-25T04:22:31;6.00;;;3.72;;
12869;SDS011;6503;48.572;13.460;2023-04-25T04:24:59;5.78;;;4.20;;
12869;SDS011;6503;48.572;13.460;2023-04-25T04:27:32;5.85;;;3.63;;
12869;SDS011;6503;48.572;13.460;2023-04-25T04:30:00;7.55;;;4.03;;
12869;SDS011;6503;48.572;13.460;2023-04-25T04:32:30;7.65;;;4.03;;
12869;SDS011;6503;48.572;13.460;2023-04-25T04:35:02;6.95;;;3.60;;
12869;SDS011;6503;48.572;13.460;2023-04-25T04:37:32;8.40;;;4.00;;
12869;SDS011;6503;48.572;13.460;2023-04-25T04:40:00;5.50;;;3.92;;
12869;SDS011;6503;48.572;13.460;2023-04-25T04:42:30;7.45;;;4.28;;
12869;SDS011;6503;48.572;13.460;2023-04-25T04:44:58;4.55;;;3.90;;
12869;SDS011;6503;48.572;13.460;2023-04-25T04:47:26;6.38;;;4.15;;
12869;SDS011;6503;48.572;13.460;2023-04-25T04:52:53;6.55;;;5.07;;
12869;SDS011;6503;48.572;13.460;2023-04-25T04:55:24;6.22;;;4.55;;
12869;SDS011;6503;48.572;13.460;2023-04-25T04:57:57;8.40;;;4.63;;
12869;SDS011;6503;48.572;13.460;2023-04-25T05:00:25;6.60;;;4.55;;
12869;SDS011;6503;48.572;13.460;2023-04-25T05:03:10;6.35;;;4.18;;
12869;SDS011;6503;48.572;13.460;2023-04-25T05:05:51;6.45;;;4.07;;
12869;SDS011;6503;48.572;13.460;2023-04-25T05:11:05;4.78;;;3.92;;
12869;SDS011;6503;48.572;13.460;2023-04-25T05:13:32;5.60;;;4.25;;
12869;SDS011;6503;48.572;13.460;2023-04-25T05:16:14;5.25;;;4.20;;
12869;SDS011;6503;48.572;13.460;2023-04-25T05:18:48;13.80;;;4.60;;
12869;SDS011;6503;48.572;13.460;2023-04-25T05:21:17;6.53;;;4.70;;
12869;SDS011;6503;48.572;13.460;2023-04-25T05:23:45;6.80;;;4.85;;
12869;SDS011;6503;48.572;13.460;2023-04-25T05:26:23;6.47;;;4.40;;
12869;SDS011;6503;48.572;13.460;2023-04-25T05:28:51;8.33;;;5.17;;
12869;SDS011;6503;48.572;13.460;2023-04-25T05:31:20;7.90;;;4.82;;
12869;SDS011;6503;48.572;13.460;2023-04-25T05:33:47;6.65;;;4.80;;
12869;SDS011;6503;48.572;13.460;2023-04-25T05:56:05;8.93;;;4.60;;
12869;SDS011;6503;48.572;13.460;2023-04-25T05:58:45;8.20;;;4.43;;
12869;SDS011;6503;48.572;13.460;2023-04-25T06:01:15;7.20;;;4.63;;
12869;SDS011;6503;48.572;13.460;2023-04-25T06:03:43;7.55;;;5.13;;
12869;SDS011;6503;48.572;13.460;2023-04-25T06:06:11;6.40;;;4.90;;
12869;SDS011;6503;48.572;13.460;2023-04-25T06:08:52;5.18;;;4.30;;
12869;SDS011;6503;48.572;13.460;2023-04-25T06:11:35;4.55;;;3.63;;
12869;SDS011;6503;48.572;13.460;2023-04-25T06:14:07;5.90;;;4.20;;
12869;SDS011;6503;48.572;13.460;2023-04-25T06:16:41;9.80;;;4.90;;
12869;SDS011;6503;48.572;13.460;2023-04-25T06:19:15;8.57;;;4.38;;
12869;SDS011;6503;48.572;13.460;2023-04-25T06:21:43;7.07;;;4.00;;
12869;SDS011;6503;48.572;13.460;2023-04-25T06:24:12;10.10;;;4.47;;
12869;SDS011;6503;48.572;13.460;2023-04-25T06:26:53;4.35;;;3.45;;
12869;SDS011;6503;48.572;13.460;2023-04-25T06:29:26;8.07;;;4.25;;
12869;SDS011;6503;48.572;13.460;2023-04-25T06:31:54;5.63;;;4.03;;
12869;SDS011;6503;48.572;13.460;2023-04-25T06:34:23;5.88;;;4.38;;
12869;SDS011;6503;48.572;13.460;2023-04-25T06:36:50;7.72;;;4.93;;
12869;SDS011;6503;48.572;13.460;2023-04-25T06:39:18;5.80;;;4.35;;
12869;SDS011;6503;48.572;13.460;2023-04-25T06:41:49;7.05;;;3.90;;
12869;SDS011;6503;48.572;13.460;2023-04-25T06:44:26;5.60;;;3.27;;
12869;SDS011;6503;48.572;13.460;2023-04-25T06:46:54;4.75;;;3.80;;
12869;SDS011;6503;48.572;13.460;2023-04-25T06:49:28;5.72;;;3.15;;
12869;SDS011;6503;48.572;13.460;2023-04-25T06:51:56;4.78;;;3.35;;
12869;SDS011;6503;48.572;13.460;2023-04-25T06:54:23;5.35;;;3.85;;
12869;SDS011;6503;48.572;13.460;2023-04-25T06:56:54;6.60;;;3.63;;
12869;SDS011;6503;48.572;13.460;2023-04-25T06:59:23;6.15;;;4.10;;
12869;SDS011;6503;48.572;13.460;2023-04-25T07:04:40;4.72;;;3.65;;
12869;SDS011;6503;48.572;13.460;2023-04-25T07:07:11;5.00;;;3.65;;
12869;SDS011;6503;48.572;13.460;2023-04-25T07:09:40;4.25;;;3.53;;
12869;SDS011;6503;48.572;13.460;2023-04-25T07:12:17;8.77;;;3.78;;
12869;SDS011;6503;48.572;13.460;2023-04-25T07:14:57;7.05;;;3.70;;
12869;SDS011;6503;48.572;13.460;2023-04-25T07:17:31;5.07;;;3.90;;
12869;SDS011;6503;48.572;13.460;2023-04-25T07:19:59;5.53;;;4.00;;
12869;SDS011;6503;48.572;13.460;2023-04-25T07:22:36;6.50;;;3.67;;
12869;SDS011;6503;48.572;13.460;2023-04-25T07:25:07;6.93;;;3.88;;
12869;SDS011;6503;48.572;13.460;2023-04-25T07:30:47;6.18;;;4.30;;
12869;SDS011;6503;48.572;13.460;2023-04-25T07:33:29;6.97;;;3.90;;
12869;SDS011;6503;48.572;13.460;2023-04-25T07:36:03;8.07;;;4.00;;
12869;SDS011;6503;48.572;13.460;2023-04-25T07:38:33;5.70;;;3.95;;
12869;SDS011;6503;48.572;13.460;2023-04-25T07:41:03;4.00;;;3.25;;
12869;SDS011;6503;48.572;13.460;2023-04-25T07:43:31;5.50;;;3.92;;
12869;SDS011;6503;48.572;13.460;2023-04-25T07:46:00;6.68;;;3.90;;
12869;SDS011;6503;48.572;13.460;2023-04-25T07:48:28;6.65;;;3.95;;
12869;SDS011;6503;48.572;13.460;2023-04-25T07:50:56;5.85;;;4.00;;
12869;SDS011;6503;48.572;13.460;2023-04-25T07:53:24;7.10;;;4.03;;
12869;SDS011;6503;48.572;13.460;2023-04-25T07:55:52;6.35;;;4.60;;
12869;SDS011;6503;48.572;13.460;2023-04-25T07:58:25;5.70;;;3.58;;
12869;SDS011;6503;48.572;13.460;2023-04-25T08:00:54;5.90;;;4.63;;
12869;SDS011;6503;48.572;13.460;2023-04-25T08:06:28;6.50;;;3.97;;
12869;SDS011;6503;48.572;13.460;2023-04-25T08:09:01;6.80;;;3.60;;
12869;SDS011;6503;48.572;13.460;2023-04-25T08:11:34;6.68;;;3.50;;
12869;SDS011;6503;48.572;13.460;2023-04-25T08:14:02;5.35;;;3.97;;
12869;SDS011;6503;48.572;13.460;2023-04-25T08:16:29;7.22;;;3.78;;
12869;SDS011;6503;48.572;13.460;2023-04-25T08:18:58;7.35;;;3.92;;
12869;SDS011;6503;48.572;13.460;2023-04-25T08:21:27;6.03;;;3.72;;
12869;SDS011;6503;48.572;13.460;2023-04-25T08:23:55;4.90;;;3.42;;
12869;SDS011;6503;48.572;13.460;2023-04-25T08:26:23;6.35;;;4.10;;
12869;SDS011;6503;48.572;13.460;2023-04-25T08:28:51;6.55;;;3.88;;
12869;SDS011;6503;48.572;13.460;2023-04-25T08:31:19;7.00;;;3.67;;
12869;SDS011;6503;48.572;13.460;2023-04-25T08:33:47;4.97;;;4.20;;
12869;SDS011;6503;48.572;13.460;2023-04-25T08:38:57;7.80;;;3.47;;
12869;SDS011;6503;48.572;13.460;2023-04-25T08:41:25;8.05;;;5.00;;
12869;SDS011;6503;48.572;13.460;2023-04-25T08:43:54;5.57;;;3.60;;
12869;SDS011;6503;48.572;13.460;2023-04-25T08:46:27;4.75;;;3.10;;
12869;SDS011;6503;48.572;13.460;2023-04-25T08:48:56;5.28;;;3.35;;
12869;SDS011;6503;48.572;13.460;2023-04-25T08:51:26;5.28;;;3.65;;
12869;SDS011;6503;48.572;13.460;2023-04-25T08:54:01;4.47;;;2.80;;
12869;SDS011;6503;48.572;13.460;2023-04-25T08:59:09;6.13;;;3.47;;
12869;SDS011;6503;48.572;13.460;2023-04-25T09:01:42;4.78;;;3.30;;
12869;SDS011;6503;48.572;13.460;2023-04-25T09:04:10;7.38;;;3.47;;
12869;SDS011;6503;48.572;13.460;2023-04-25T09:06:48;8.57;;;3.58;;
12869;SDS011;6503;48.572;13.460;2023-04-25T09:09:19;3.67;;;3.03;;
12869;SDS011;6503;48.572;13.460;2023-04-25T09:11:47;6.50;;;3.13;;
12869;SDS011;6503;48.572;13.460;2023-04-25T09:14:15;3.97;;;2.78;;
12869;SDS011;6503;48.572;13.460;2023-04-25T09:19:39;4.78;;;3.40;;
12869;SDS011;6503;48.572;13.460;2023-04-25T09:22:10;6.07;;;3.50;;
12869;SDS011;6503;48.572;13.460;2023-04-25T09:24:44;4.97;;;3.80;;
12869;SDS011;6503;48.572;13.460;2023-04-25T09:27:18;6.47;;;3.67;;
12869;SDS011;6503;48.572;13.460;2023-04-25T09:29:56;7.50;;;3.83;;
12869;SDS011;6503;48.572;13.460;2023-04-25T09:32:33;6.43;;;4.05;;
12869;SDS011;6503;48.572;13.460;2023-04-25T09:35:04;6.03;;;3.65;;
12869;SDS011;6503;48.572;13.460;2023-04-25T09:37:33;5.55;;;3.72;;
12869;SDS011;6503;48.572;13.460;2023-04-25T09:40:06;5.55;;;3.05;;
12869;SDS011;6503;48.572;13.460;2023-04-25T09:42:46;5.88;;;3.33;;
12869;SDS011;6503;48.572;13.460;2023-04-25T09:45:21;5.07;;;3.70;;
12869;SDS011;6503;48.572;13.460;2023-04-25T09:51:15;2.90;;;2.35;;
12869;SDS011;6503;48.572;13.460;2023-04-25T09:53:43;3.38;;;2.58;;
12869;SDS011;6503;48.572;13.460;2023-04-25T09:56:13;4.93;;;2.58;;
12869;SDS011;6503;48.572;13.460;2023-04-25T09:58:41;3.63;;;2.72;;
12869;SDS011;6503;48.572;13.460;2023-04-25T10:01:09;5.30;;;2.45;;
12869;SDS011;6503;48.572;13.460;2023-04-25T10:03:51;2.78;;;1.95;;
12869;SDS011;6503;48.572;13.460;2023-04-25T10:06:54;2.55;;;2.35;;
12869;SDS011;6503;48.572;13.460;2023-04-25T10:09:41;3.15;;;2.20;;
12869;SDS011;6503;48.572;13.460;2023-04-25T10:29:34;5.90;;;2.95;;
12869;SDS011;6503;48.572;13.460;2023-04-25T10:35:14;3.55;;;2.95;;
12869;SDS011;6503;48.572;13.460;2023-04-25T10:37:59;5.18;;;3.58;;
12869;SDS011;6503;48.572;13.460;2023-04-25T10:40:27;6.15;;;3.55;;
12869;SDS011;6503;48.572;13.460;2023-04-25T10:45:52;7.22;;;4.20;;
12869;SDS011;6503;48.572;13.460;2023-04-25T10:48:24;4.50;;;2.90;;
12869;SDS011;6503;48.572;13.460;2023-04-25T10:51:01;5.25;;;3.53;;
12869;SDS011;6503;48.572;13.460;2023-04-25T10:53:44;5.63;;;3.40;;
12869;SDS011;6503;48.572;13.460;2023-04-25T10:56:11;3.50;;;2.83;;
12869;SDS011;6503;48.572;13.460;2023-04-25T10:58:47;4.55;;;2.00;;
12869;SDS011;6503;48.572;13.460;2023-04-25T11:01:21;3.20;;;2.13;;
12869;SDS011;6503;48.572;13.460;2023-04-25T11:03:57;3.22;;;2.35;;
12869;SDS011;6503;48.572;13.460;2023-04-25T11:06:27;2.83;;;1.50;;
12869;SDS011;6503;48.572;13.460;2023-04-25T11:09:00;3.10;;;2.00;;
12869;SDS011;6503;48.572;13.460;2023-04-25T11:11:28;3.00;;;2.00;;
12869;SDS011;6503;48.572;13.460;2023-04-25T11:13:58;5.10;;;2.15;;
12869;SDS011;6503;48.572;13.460;2023-04-25T11:16:29;3.50;;;2.70;;
12869;SDS011;6503;48.572;13.460;2023-04-25T11:19:01;2.90;;;2.28;;
12869;SDS011;6503;48.572;13.460;2023-04-25T11:21:30;2.22;;;1.88;;
12869;SDS011;6503;48.572;13.460;2023-04-25T11:23:58;7.93;;;2.10;;
12869;SDS011;6503;48.572;13.460;2023-04-25T11:26:27;4.32;;;2.30;;
12869;SDS011;6503;48.572;13.460;2023-04-25T11:28:58;2.75;;;2.13;;
12869;SDS011;6503;48.572;13.460;2023-04-25T11:31:28;2.85;;;1.92;;
12869;SDS011;6503;48.572;13.460;2023-04-25T11:33:56;3.92;;;2.15;;
12869;SDS011;6503;48.572;13.460;2023-04-25T11:36:24;3.42;;;1.90;;
12869;SDS011;6503;48.572;13.460;2023-04-25T11:38:52;3.53;;;2.30;;
12869;SDS011;6503;48.572;13.460;2023-04-25T11:41:20;2.65;;;1.95;;
12869;SDS011;6503;48.572;13.460;2023-04-25T11:43:48;3.20;;;1.77;;
12869;SDS011;6503;48.572;13.460;2023-04-25T11:46:17;3.95;;;2.10;;
12869;SDS011;6503;48.572;13.460;2023-04-25T11:48:48;3.83;;;2.22;;
12869;SDS011;6503;48.572;13.460;2023-04-25T12:01:48;2.05;;;1.10;;
12869;SDS011;6503;48.572;13.460;2023-04-25T13:14:22;2.22;;;2.03;;
12869;SDS011;6503;48.572;13.460;2023-04-25T13:20:11;2.78;;;2.10;;
12869;SDS011;6503;48.572;13.460;2023-04-25T13:26:34;5.85;;;2.20;;
12869;SDS011;6503;48.572;13.460;2023-04-25T13:32:33;3.25;;;2.25;;
12869;SDS011;6503;48.572;13.460;2023-04-25T13:35:16;3.75;;;2.53;;
12869;SDS011;6503;48.572;13.460;2023-04-25T13:39:24;2.30;;;2.10;;
12869;SDS011;6503;48.572;13.460;2023-04-25T13:57:02;2.28;;;1.75;;
12869;SDS011;6503;48.572;13.460;2023-04-25T13:59:37;1.95;;;1.75;;
12869;SDS011;6503;48.572;13.460;2023-04-25T14:02:07;1.90;;;1.70;;
12869;SDS011;6503;48.572;13.460;2023-04-25T14:04:37;2.25;;;1.98;;
12869;SDS011;6503;48.572;13.460;2023-04-25T14:07:05;2.70;;;2.13;;
12869;SDS011;6503;48.572;13.460;2023-04-25T14:09:36;2.47;;;2.20;;
12869;SDS011;6503;48.572;13.460;2023-04-25T14:12:05;2.28;;;1.90;;
12869;SDS011;6503;48.572;13.460;2023-04-25T14:14:33;2.45;;;2.20;;
12869;SDS011;6503;48.572;13.460;2023-04-25T14:17:00;3.42;;;2.40;;
12869;SDS011;6503;48.572;13.460;2023-04-25T14:19:28;3.03;;;2.20;;
12869;SDS011;6503;48.572;13.460;2023-04-25T14:21:55;2.20;;;1.90;;
12869;SDS011;6503;48.572;13.460;2023-04-25T14:24:23;3.45;;;2.50;;
12869;SDS011;6503;48.572;13.460;2023-04-25T14:26:50;2.92;;;2.20;;
12869;SDS011;6503;48.572;13.460;2023-04-25T14:29:20;2.67;;;2.10;;
12869;SDS011;6503;48.572;13.460;2023-04-25T14:31:48;2.47;;;1.70;;
12869;SDS011;6503;48.572;13.460;2023-04-25T14:34:17;2.45;;;1.90;;
12869;SDS011;6503;48.572;13.460;2023-04-25T14:37:03;1.50;;;1.40;;
12869;SDS011;6503;48.572;13.460;2023-04-25T14:39:31;1.77;;;1.25;;
12869;SDS011;6503;48.572;13.460;2023-04-25T14:42:00;4.90;;;1.40;;
12869;SDS011;6503;48.572;13.460;2023-04-25T14:44:27;2.10;;;1.58;;
12869;SDS011;6503;48.572;13.460;2023-04-25T14:46:55;3.75;;;2.25;;
12869;SDS011;6503;48.572;13.460;2023-04-25T14:49:23;2.85;;;2.00;;
12869;SDS011;6503;48.572;13.460;2023-04-25T14:51:50;3.70;;;1.33;;
12869;SDS011;6503;48.572;13.460;2023-04-25T14:54:19;3.22;;;1.70;;
12869;SDS011;6503;48.572;13.460;2023-04-25T14:56:47;2.30;;;1.52;;
12869;SDS011;6503;48.572;13.460;2023-04-25T14:59:14;1.50;;;1.40;;
12869;SDS011;6503;48.572;13.460;2023-04-25T15:01:52;3.40;;;1.88;;
12869;SDS011;6503;48.572;13.460;2023-04-25T15:04:20;1.30;;;1.20;;
12869;SDS011;6503;48.572;13.460;2023-04-25T15:06:50;2.05;;;1.50;;
12869;SDS011;6503;48.572;13.460;2023-04-25T15:09:20;2.92;;;2.00;;
12869;SDS011;6503;48.572;13.460;2023-04-25T15:11:53;3.42;;;2.00;;
12869;SDS011;6503;48.572;13.460;2023-04-25T15:14:21;1.85;;;1.50;;
12869;SDS011;6503;48.572;13.460;2023-04-25T15:16:49;1.95;;;1.48;;
12869;SDS011;6503;48.572;13.460;2023-04-25T15:19:16;3.75;;;2.30;;
12869;SDS011;6503;48.572;13.460;2023-04-25T15:21:45;1.65;;;1.30;;
12869;SDS011;6503;48.572;13.460;2023-04-25T15:24:13;2.85;;;1.90;;
12869;SDS011;6503;48.572;13.460;2023-04-25T15:26:42;1.70;;;1.60;;
12869;SDS011;6503;48.572;13.460;2023-04-25T15:29:10;2.00;;;1.80;;
12869;SDS011;6503;48.572;13.460;2023-04-25T15:31:38;1.92;;;1.27;;
12869;SDS011;6503;48.572;13.460;2023-04-25T15:34:06;1.52;;;1.17;;
12869;SDS011;6503;48.572;13.460;2023-04-25T15:36:34;1.65;;;1.40;;
12869;SDS011;6503;48.572;13.460;2023-04-25T15:39:01;2.90;;;1.60;;
12869;SDS011;6503;48.572;13.460;2023-04-25T15:41:31;2.33;;;1.50;;
12869;SDS011;6503;48.572;13.460;2023-04-25T15:44:01;1.95;;;1.60;;
12869;SDS011;6503;48.572;13.460;2023-04-25T15:46:28;1.85;;;1.40;;
12869;SDS011;6503;48.572;13.460;2023-04-25T15:48:58;1.95;;;1.58;;
12869;SDS011;6503;48.572;13.460;2023-04-25T15:51:32;2.92;;;1.70;;
12869;SDS011;6503;48.572;13.460;2023-04-25T15:53:59;1.90;;;1.65;;
12869;SDS011;6503;48.572;13.460;2023-04-25T15:56:28;5.47;;;3.15;;
12869;SDS011;6503;48.572;13.460;2023-04-25T15:58:56;2.67;;;1.88;;
12869;SDS011;6503;48.572;13.460;2023-04-25T16:01:27;2.22;;;1.88;;
12869;SDS011;6503;48.572;13.460;2023-04-25T16:03:55;2.80;;;2.00;;
12869;SDS011;6503;48.572;13.460;2023-04-25T16:06:23;2.72;;;1.90;;
12869;SDS011;6503;48.572;13.460;2023-04-25T16:08:51;2.78;;;2.17;;
12869;SDS011;6503;48.572;13.460;2023-04-25T16:11:19;2.53;;;2.20;;
12869;SDS011;6503;48.572;13.460;2023-04-25T16:13:47;2.40;;;1.90;;
12869;SDS011;6503;48.572;13.460;2023-04-25T16:16:15;3.00;;;2.25;;
12869;SDS011;6503;48.572;13.460;2023-04-25T16:18:45;3.92;;;2.65;;
12869;SDS011;6503;48.572;13.460;2023-04-25T16:21:12;2.45;;;2.10;;
12869;SDS011;6503;48.572;13.460;2023-04-25T16:23:40;4.85;;;2.63;;
12869;SDS011;6503;48.572;13.460;2023-04-25T16:26:09;5.53;;;2.75;;
12869;SDS011;6503;48.572;13.460;2023-04-25T16:28:37;3.90;;;2.72;;
12869;SDS011;6503;48.572;13.460;2023-04-25T16:31:04;2.58;;;2.35;;
12869;SDS011;6503;48.572;13.460;2023-04-25T16:33:32;5.25;;;2.83;;
12869;SDS011;6503;48.572;13.460;2023-04-25T16:36:02;4.78;;;2.50;;
12869;SDS011;6503;48.572;13.460;2023-04-25T16:38:29;4.73;;;2.90;;
12869;SDS011;6503;48.572;13.460;2023-04-25T16:40:58;2.70;;;2.50;;
12869;SDS011;6503;48.572;13.460;2023-04-25T16:43:26;6.63;;;2.95;;
12869;SDS011;6503;48.572;13.460;2023-04-25T16:45:53;4.47;;;2.97;;
12869;SDS011;6503;48.572;13.460;2023-04-25T16:48:21;3.45;;;2.70;;
12869;SDS011;6503;48.572;13.460;2023-04-25T16:50:48;4.88;;;3.53;;
12869;SDS011;6503;48.572;13.460;2023-04-25T16:53:18;3.88;;;3.00;;
12869;SDS011;6503;48.572;13.460;2023-04-25T16:55:47;4.85;;;2.75;;
12869;SDS011;6503;48.572;13.460;2023-04-25T16:58:14;5.00;;;2.78;;
12869;SDS011;6503;48.572;13.460;2023-04-25T17:00:42;3.20;;;2.80;;
12869;SDS011;6503;48.572;13.460;2023-04-25T17:03:11;4.25;;;2.75;;
12869;SDS011;6503;48.572;13.460;2023-04-25T17:05:38;3.05;;;2.75;;
12869;SDS011;6503;48.572;13.460;2023-04-25T17:08:06;3.80;;;2.80;;
12869;SDS011;6503;48.572;13.460;2023-04-25T17:10:35;3.65;;;2.42;;
12869;SDS011;6503;48.572;13.460;2023-04-25T17:13:02;3.60;;;2.20;;
12869;SDS011;6503;48.572;13.460;2023-04-25T17:15:30;4.22;;;2.80;;
12869;SDS011;6503;48.572;13.460;2023-04-25T17:17:57;4.03;;;2.50;;
12869;SDS011;6503;48.572;13.460;2023-04-25T17:20:25;5.10;;;3.10;;
12869;SDS011;6503;48.572;13.460;2023-04-25T17:22:53;4.80;;;2.85;;
12869;SDS011;6503;48.572;13.460;2023-04-25T17:25:21;3.97;;;2.75;;
12869;SDS011;6503;48.572;13.460;2023-04-25T17:27:50;3.63;;;2.53;;
12869;SDS011;6503;48.572;13.460;2023-04-25T17:30:18;3.53;;;2.47;;
12869;SDS011;6503;48.572;13.460;2023-04-25T17:32:45;5.30;;;3.53;;
12869;SDS011;6503;48.572;13.460;2023-04-25T17:35:13;7.10;;;4.70;;
12869;SDS011;6503;48.572;13.460;2023-04-25T17:37:41;5.28;;;3.65;;
12869;SDS011;6503;48.572;13.460;2023-04-25T17:40:09;3.92;;;2.97;;
12869;SDS011;6503;48.572;13.460;2023-04-25T17:42:37;3.25;;;2.25;;
12869;SDS011;6503;48.572;13.460;2023-04-25T17:45:07;4.93;;;2.88;;
12869;SDS011;6503;48.572;13.460;2023-04-25T17:47:36;4.30;;;2.90;;
12869;SDS011;6503;48.572;13.460;2023-04-25T17:50:05;5.13;;;2.90;;
12869;SDS011;6503;48.572;13.460;2023-04-25T17:52:32;7.25;;;3.35;;
12869;SDS011;6503;48.572;13.460;2023-04-25T17:55:00;5.03;;;2.47;;
12869;SDS011;6503;48.572;13.460;2023-04-25T17:57:30;2.25;;;1.70;;
12869;SDS011;6503;48.572;13.460;2023-04-25T17:59:57;5.22;;;2.00;;
12869;SDS011;6503;48.572;13.460;2023-04-25T18:02:29;2.03;;;1.40;;
12869;SDS011;6503;48.572;13.460;2023-04-25T18:04:57;3.95;;;2.08;;
12869;SDS011;6503;48.572;13.460;2023-04-25T18:07:24;2.47;;;1.95;;